createdAt,value
2019-04-01T00:00:17.412Z,20.00
2019-04-01T00:13:24.570Z,20.00
2019-04-01T00:26:31.782Z,20.00
2019-04-01T00:39:38.978Z,20.10
2019-04-01T00:52:46.218Z,20.10
2019-04-01T01:18:56.048Z,20.10
2019-04-01T01:32:03.234Z,20.10
2019-04-01T01:45:10.445Z,20.10
2019-04-01T01:58:17.650Z,20.10
2019-04-01T02:11:24.871Z,20.10
2019-04-01T02:24:32.117Z,20.10
2019-04-01T02:37:55.785Z,20.10
2019-04-01T02:51:18.671Z,20.10
2019-04-01T03:04:41.414Z,20.10
2019-04-01T03:31:06.000Z,20.00
2019-04-01T03:44:13.217Z,20.00
2019-04-01T03:57:20.393Z,20.00
2019-04-01T04:10:27.561Z,20.00
2019-04-01T04:23:34.785Z,20.00
2019-04-01T04:36:41.975Z,19.90
2019-04-01T04:50:05.681Z,19.90
2019-04-01T05:03:28.429Z,19.90
2019-04-01T05:16:51.275Z,19.90
2019-04-01T05:43:15.688Z,19.90
2019-04-01T05:56:22.874Z,19.90
2019-04-01T06:09:30.091Z,19.90
2019-04-01T06:22:37.361Z,19.90
2019-04-01T06:35:44.580Z,19.90
2019-04-01T07:01:54.323Z,19.90
2019-04-01T07:15:01.538Z,19.70
2019-04-01T07:28:08.730Z,19.80
2019-04-01T07:41:15.930Z,19.70
2019-04-01T07:54:23.147Z,19.70
2019-04-01T08:07:30.369Z,19.70
2019-04-01T08:20:54.117Z,19.70
2019-04-01T08:34:16.903Z,19.70
2019-04-01T08:47:39.760Z,19.70
2019-04-01T09:01:02.510Z,19.80
2019-04-01T09:14:25.353Z,19.80
2019-04-01T09:27:48.164Z,19.80
2019-04-01T09:41:13.098Z,19.80
2019-04-01T10:07:56.658Z,19.80
2019-04-01T10:34:54.549Z,19.80
2019-04-01T10:48:01.878Z,19.80
2019-04-01T11:01:09.170Z,19.80
2019-04-01T11:14:16.432Z,19.80
2019-04-01T11:27:23.695Z,19.80
2019-04-01T11:40:47.222Z,19.50
2019-04-01T11:54:10.452Z,19.70
2019-04-01T12:20:34.499Z,19.80
2019-04-01T12:33:41.747Z,19.80
2019-04-01T13:13:54.197Z,19.80
2019-04-01T13:27:16.922Z,19.80
2019-04-01T13:40:39.874Z,19.80
2019-04-01T13:54:08.071Z,19.90
2019-04-01T14:07:25.416Z,19.90
2019-04-01T14:20:48.217Z,19.90
2019-04-01T14:34:13.633Z,19.90
2019-04-01T14:47:33.820Z,19.90
2019-04-01T15:00:56.656Z,19.90
2019-04-01T15:14:19.503Z,19.90
2019-04-01T15:27:42.285Z,19.90
2019-04-01T15:41:05.095Z,20.00
2019-04-01T15:54:27.916Z,20.00
2019-04-01T16:07:51.271Z,19.90
2019-04-01T16:21:13.571Z,20.00
2019-04-01T16:34:36.372Z,20.00
2019-04-01T16:47:59.205Z,19.90
2019-04-01T17:01:23.074Z,20.00
2019-04-01T17:14:45.036Z,20.00
2019-04-01T17:28:07.622Z,20.00
2019-04-01T17:41:30.437Z,20.00
2019-04-01T17:54:53.258Z,20.00
2019-04-01T18:08:16.094Z,20.00
2019-04-01T18:21:38.864Z,20.00
2019-04-01T18:35:03.890Z,19.90
2019-04-01T18:48:24.572Z,19.90
2019-04-01T19:01:47.436Z,18.80
2019-04-01T19:15:10.571Z,18.30
2019-04-01T19:41:34.765Z,19.50
2019-04-01T19:54:42.115Z,19.60
2019-04-01T20:07:49.469Z,19.60
2019-04-01T20:34:00.335Z,19.70
2019-04-01T20:47:07.986Z,19.70
2019-04-01T21:00:14.964Z,19.70
2019-04-01T21:13:22.194Z,19.70
2019-04-01T21:26:29.435Z,18.40
2019-04-01T21:39:37.871Z,19.20
2019-04-01T21:53:00.134Z,19.60
2019-04-01T22:06:22.908Z,19.70
2019-04-01T22:19:45.699Z,19.70
2019-04-01T22:33:08.518Z,19.80
2019-04-01T22:46:31.359Z,19.80
2019-04-01T22:59:54.184Z,19.80
2019-04-01T23:40:19.113Z,19.70
2019-04-01T23:53:41.819Z,19.70
